Nearby METAR Reports

 

KPBI - West Palm Beach, Florida, USA
Distance from station: NNE 9mi, 14km
Updated: Sat, 20-Jul-2019 7:53pm EDT
Mostly cloudy
Mostly cloudy
 Wind from ESE
Wind: ESE 7 mph , 11 km/h
Temperature: 84°F , 29°C
Heat Index: 92°F , 33°C
Dew Point: 75°F , 24°C
Humidity: 74%
Barometer: 30.04 inHg , 1017.3 hPa
Clouds: Mostly cloudy
Visibility: 10 miles , 16 km
Cloud details: Few Clouds 2000 ft
Few Clouds 15000 ft
Mostly cloudy 20000 ft
2019/07/20 23:53 KPBI 202353Z 11006KT 10SM FEW020 FEW150 BKN200 29/24 A3004 RMK AO2 SLP173 T02890239 10328 20289 55000 $
KBCT - Boca Raton, Florida, USA
Distance from station: SSE 13mi, 21km
Updated: Sat, 20-Jul-2019 7:47pm EDT
Clear
Clear
 Wind from E
Wind: E 5 mph , 7 km/h
Temperature: 82°F , 28°C
Heat Index: 91°F , 33°C
Dew Point: 79°F , 26°C
Humidity: 89%
Barometer: 30.04 inHg , 1017.3 hPa
Clouds: Clear
Visibility: 8 miles , 13 km
2019/07/20 23:47 KBCT 202347Z 09004KT 8SM CLR 28/26 A3004
 
KPMP - Pompano Beach, Florida, USA
Distance from station: S 22mi, 36km
Updated: Sat, 20-Jul-2019 7:53pm EDT
Clear
Clear
 Wind from SSE
Wind: SSE 8 mph , 13 km/h
Temperature: 84°F , 29°C
Heat Index: 90°F , 32°C
Dew Point: 73°F , 23°C
Humidity: 70%
Barometer: 30.04 inHg , 1017.3 hPa
Clouds: Clear
Visibility: 10 miles , 16 km
2019/07/20 23:53 KPMP 202353Z 15007KT 10SM CLR 29/23 A3004 RMK AO2 SLP172 T02940228 10322 20289 55000
KFXE - Ft Lauderd/Exec, Florida, USA
Distance from station: S 25mi, 41km
Updated: Sat, 20-Jul-2019 7:53pm EDT
Partly cloudy
Partly cloudy
 Wind from SSE
Wind: SSE 7 mph , 11 km/h
Temperature: 84°F , 29°C
Heat Index: 89°F , 32°C
Dew Point: 72°F , 22°C
Humidity: 66%
Barometer: 30.04 inHg , 1017.3 hPa
Clouds: Partly cloudy
Visibility: 10 miles , 16 km
Cloud details: Partly cloudy 5000 ft
2019/07/20 23:53 KFXE 202353Z 16006KT 10SM SCT050 29/22 A3004 RMK AO2 SLP173 T02890222 10317 20289 55001
 
KFLL - Ft Lauderd/Holly, Florida, USA
Distance from station: S 35mi, 56km
Updated: Sat, 20-Jul-2019 7:53pm EDT
Mostly cloudy
Mostly cloudy
 Wind from SSE
Wind: SSE 8 mph , 13 km/h
Temperature: 84°F , 29°C
Heat Index: 90°F , 32°C
Dew Point: 73°F , 23°C
Humidity: 70%
Barometer: 30.04 inHg , 1017.3 hPa
Clouds: Mostly cloudy
Visibility: 10 miles , 16 km
Cloud details: Few Clouds 3000 ft
Partly cloudy 12000 ft
Mostly cloudy 25000 ft
2019/07/20 23:53 KFLL 202353Z 15007KT 10SM FEW030 SCT120 BKN250 29/23 A3004 RMK AO2 SLP170 T02890228 10317 20289 53001
KHWO - Hollywood, Florida, USA
Distance from station: S 39mi, 64km
Updated: Sat, 20-Jul-2019 7:53pm EDT
Clear
Clear
 Wind from SE
Wind: SE 6 mph , 9 km/h
Temperature: 84°F , 29°C
Heat Index: 88°F , 31°C
Dew Point: 70°F , 21°C
Humidity: 62%
Barometer: 30.06 inHg , 1017.9 hPa
Clouds: Clear
Visibility: 10 miles , 16 km
2019/07/20 23:53 KHWO 202353Z 13005KT 10SM CLR 29/21 A3006 RMK AO2 SLP178 60027 T02940211 10328 20256 53003
 
KSUA - Stuart/Witham, Florida, USA
Distance from station: N 43mi, 69km
Updated: Sat, 20-Jul-2019 7:50pm EDT
Nearby thunderstorm, Partly cloudy
Nearby thunderstorm, Partly cloudy
 Wind from SE
Wind: SE 6 mph , 9 km/h
Temperature: 84°F , 29°C
Heat Index: 90°F , 32°C
Dew Point: 73°F , 23°C
Humidity: 70%
Barometer: 30.06 inHg , 1017.9 hPa
Summary: Nearby Thunderstorm
Clouds: Partly cloudy
Visibility: 7 miles , 11 km
Cloud details: Partly cloudy 2500 ft
2019/07/20 23:50 KSUA 202350Z 13005KT 7SM VCTS SCT025 29/23 A3006
KOPF - Miami/Opa Locka, Florida, USA
Distance from station: S 46mi, 73km
Updated: Sat, 20-Jul-2019 7:53pm EDT
Clear
Clear
 Wind from SE
Wind: SE 7 mph , 11 km/h
Temperature: 84°F , 29°C
Heat Index: 88°F , 31°C
Dew Point: 70°F , 21°C
Humidity: 62%
Barometer: 30.05 inHg , 1017.6 hPa
Clouds: Clear
Visibility: 10 miles , 16 km
2019/07/20 23:53 KOPF 202353Z 14006KT 10SM CLR 29/21 A3005 RMK AO2 SLP176 6//// T02940211 10322 20294 53005
 
KMIA - Miami, Florida, USA
Distance from station: S 54mi, 86km
Updated: Sat, 20-Jul-2019 7:53pm EDT
Mostly cloudy
Mostly cloudy
 Wind from SE
Wind: SE 8 mph , 13 km/h
Temperature: 84°F , 29°C
Heat Index: 89°F , 32°C
Dew Point: 72°F , 22°C
Humidity: 66%
Barometer: 30.04 inHg , 1017.3 hPa
Clouds: Mostly cloudy
Visibility: 10 miles , 16 km
Cloud details: Few Clouds 3000 ft
Few Clouds 13000 ft
Mostly cloudy 25000 ft
2019/07/20 23:53 KMIA 202353Z 13007KT 10SM FEW030 FEW130 BKN250 29/22 A3004 RMK AO2 SLP173 CB DSNT SE AND SW-W MOV NW 60000 T02940217 10317 20272 53004 $
KOBE - Okeechobee Cty, Florida, USA
Distance from station: NW 64mi, 104km
Updated: Sat, 20-Jul-2019 8:15pm EDT
Mostly cloudy
Mostly cloudy
 Wind from SSW
Wind: SSW 5 mph , 7 km/h
Temperature: 73°F , 23°C
Dew Point: 72°F , 22°C
Humidity: 94%
Barometer: 30.05 inHg , 1017.6 hPa
Clouds: Mostly cloudy
Visibility: 10 miles , 16 km
Cloud details: Mostly cloudy 3500 ft
2019/07/21 00:15 KOBE 210015Z AUTO 20004KT 10SM BKN035 23/22 A3005 RMK AO2 LTG DSNT NW
 
KFPR - Fort Pierce, Florida, USA
Distance from station: NNW 66mi, 106km
Updated: Sat, 20-Jul-2019 7:53pm EDT
Clear
Clear
 Wind from ESE
Wind: ESE 6 mph , 9 km/h
Temperature: 84°F , 29°C
Heat Index: 90°F , 32°C
Dew Point: 73°F , 23°C
Humidity: 70%
Barometer: 30.05 inHg , 1017.6 hPa
Clouds: Clear
Visibility: 10 miles , 16 km
2019/07/20 23:53 KFPR 202353Z 11005KT 10SM CLR 29/23 A3005 RMK AO2 SLP174 T02890233 10306 20289 53001
KTMB - Miami/Tamiami, Florida, USA
Distance from station: SSW 66mi, 106km
Updated: Sat, 20-Jul-2019 7:53pm EDT
Clear
Clear
 Wind from ESE
Wind: ESE 8 mph , 13 km/h
Temperature: 84°F , 29°C
Heat Index: 92°F , 33°C
Dew Point: 75°F , 24°C
Humidity: 74%
Barometer: 30.04 inHg , 1017.3 hPa
Clouds: Clear
Visibility: 10 miles , 16 km
2019/07/20 23:53 KTMB 202353Z 11007KT 10SM CLR 29/24 A3004 RMK AO2 SLP171 T02890244 10328 20289 53009 $
 
KVRB - Vero Beach, Florida, USA
Distance from station: NNW 76mi, 123km
Updated: Sat, 20-Jul-2019 7:53pm EDT
Clear
Clear
 Wind from E
Wind: E 6 mph , 9 km/h
Temperature: 82°F , 28°C
Heat Index: 89°F , 32°C
Dew Point: 75°F , 24°C
Humidity: 79%
Barometer: 30.06 inHg , 1017.9 hPa
Clouds: Clear
Visibility: 10 miles , 16 km
2019/07/20 23:53 KVRB 202353Z 10005KT 10SM CLR 28/24 A3006 RMK AO2 SLP177 T02830239 10300 20283 53001
KHST - Homestead Afb, Florida, USA
Distance from station: S 77mi, 124km
Updated: Sat, 20-Jul-2019 7:56pm EDT
Clear
Clear
 Wind from ESE
Wind: ESE 5 mph , 7 km/h
Temperature: 84°F , 29°C
Heat Index: 94°F , 34°C
Dew Point: 77°F , 25°C
Humidity: 79%
Barometer: 30.03 inHg , 1016.9 hPa
Clouds: Clear
Visibility: 10 miles , 16 km
2019/07/20 23:56 KHST 202356Z AUTO 11004KT 10SM CLR 29/25 A3003 RMK AO2 LTG DSNT W-NW SLP172 60000 T02910248 10322 20291 53007 $
 
KIMM - Immokalee, Florida, USA
Distance from station: W 77mi, 124km
Updated: Sat, 20-Jul-2019 8:15pm EDT
Few Clouds
Few Clouds
 Wind from calm
Wind: Calm
Temperature: 77°F , 25°C
Dew Point: 75°F , 24°C
Humidity: 94%
Barometer: 30.03 inHg , 1016.9 hPa
Clouds: Few Clouds
Visibility: 10 miles , 16 km
Cloud details: Few Clouds 3500 ft
Few Clouds 6500 ft
2019/07/21 00:15 KIMM 210015Z AUTO 00000KT 10SM FEW035 FEW065 25/24 A3003 RMK AO2 LTG DSNT S
MYGF - Freeport Intl A, Bahamas
Distance from station: E 90mi, 145km
Updated: Sat, 20-Jul-2019 8:00pm EDT
Mostly cloudy
Mostly cloudy
 Wind from ESE
Wind: ESE 8 mph , 13 km/h
Temperature: 86°F , 30°C
Heat Index: 97°F , 36°C
Dew Point: 77°F , 25°C
Humidity: 75%
Barometer: 30.04 inHg , 1017.3 hPa
Clouds: Mostly cloudy
Visibility: 6 miles , 10 km
Cloud details: Few Clouds 1500 ft
Mostly cloudy 25000 ft
2019/07/21 00:00 MYGF 210000Z 11007KT 9999 FEW015CB BKN250 30/25 A3004
 
KSEF - Sebring, Florida, USA
Distance from station: NW 95mi, 153km
Updated: Sat, 20-Jul-2019 8:15pm EDT
Clear
Clear
 Wind from NNW
Wind: NNW 6 mph , 9 km/h
Temperature: 82°F , 28°C
Heat Index: 89°F , 32°C
Dew Point: 75°F , 24°C
Humidity: 79%
Barometer: 30.05 inHg , 1017.6 hPa
Clouds: Clear
Visibility: 10 miles , 16 km
2019/07/21 00:15 KSEF 210015Z AUTO 33005KT 10SM CLR 28/24 A3005 RMK AO2 LTG DSNT N S AND NW T02800236
KRSW - Fort Myers, Florida, USA
Distance from station: W 98mi, 158km
Updated: Sat, 20-Jul-2019 7:53pm EDT
Clear
Clear
 Wind from NNE
Wind: NNE 3 mph , 6 km/h
Temperature: 77°F , 25°C
Dew Point: 73°F , 23°C
Humidity: 89%
Barometer: 30.04 inHg , 1017.3 hPa
Clouds: Clear
Visibility: 10 miles , 16 km
2019/07/20 23:53 KRSW 202353Z 02003KT 10SM CLR 25/23 A3004 RMK AO2 SLP169 60006 T02500228 10328 20239 50004